sensor_id;sensor_type;location;lat;lon;timestamp;P1;durP1;ratioP1;P2;durP2;ratioP2
36725;SDS011;44936;52.086;5.150;2023-09-18T00:01:03;9.70;;;4.65;;
36725;SDS011;44936;52.086;5.150;2023-09-18T00:03:30;10.05;;;4.28;;
36725;SDS011;44936;52.086;5.150;2023-09-18T00:05:56;9.50;;;4.75;;
36725;SDS011;44936;52.086;5.150;2023-09-18T00:08:21;9.13;;;4.25;;
36725;SDS011;44936;52.086;5.150;2023-09-18T00:10:48;9.25;;;4.40;;
36725;SDS011;44936;52.086;5.150;2023-09-18T00:13:15;9.38;;;4.40;;
36725;SDS011;44936;52.086;5.150;2023-09-18T00:15:41;10.15;;;4.22;;
36725;SDS011;44936;52.086;5.150;2023-09-18T00:18:07;8.10;;;4.20;;
36725;SDS011;44936;52.086;5.150;2023-09-18T00:20:33;9.88;;;4.47;;
36725;SDS011;44936;52.086;5.150;2023-09-18T00:22:58;9.52;;;4.22;;
36725;SDS011;44936;52.086;5.150;2023-09-18T00:25:26;9.23;;;4.35;;
36725;SDS011;44936;52.086;5.150;2023-09-18T00:27:51;7.95;;;3.95;;
36725;SDS011;44936;52.086;5.150;2023-09-18T00:30:17;8.23;;;4.20;;
36725;SDS011;44936;52.086;5.150;2023-09-18T00:32:42;11.10;;;4.03;;
36725;SDS011;44936;52.086;5.150;2023-09-18T00:35:07;8.63;;;4.13;;
36725;SDS011;44936;52.086;5.150;2023-09-18T00:37:37;8.77;;;3.97;;
36725;SDS011;44936;52.086;5.150;2023-09-18T00:40:04;10.38;;;4.68;;
36725;SDS011;44936;52.086;5.150;2023-09-18T00:42:32;9.15;;;4.30;;
36725;SDS011;44936;52.086;5.150;2023-09-18T00:44:57;8.75;;;4.47;;
36725;SDS011;44936;52.086;5.150;2023-09-18T00:47:23;10.80;;;4.35;;
36725;SDS011;44936;52.086;5.150;2023-09-18T00:49:49;6.95;;;3.72;;
36725;SDS011;44936;52.086;5.150;2023-09-18T00:52:16;7.68;;;3.47;;
36725;SDS011;44936;52.086;5.150;2023-09-18T00:54:42;9.18;;;4.10;;
36725;SDS011;44936;52.086;5.150;2023-09-18T00:57:09;6.85;;;3.95;;
36725;SDS011;44936;52.086;5.150;2023-09-18T00:59:35;8.35;;;3.60;;
36725;SDS011;44936;52.086;5.150;2023-09-18T01:02:01;9.57;;;4.25;;
36725;SDS011;44936;52.086;5.150;2023-09-18T01:04:27;8.68;;;3.88;;
36725;SDS011;44936;52.086;5.150;2023-09-18T01:06:55;6.40;;;3.50;;
36725;SDS011;44936;52.086;5.150;2023-09-18T01:09:21;8.73;;;4.22;;
36725;SDS011;44936;52.086;5.150;2023-09-18T01:14:28;8.02;;;3.45;;
36725;SDS011;44936;52.086;5.150;2023-09-18T01:17:10;7.53;;;4.00;;
36725;SDS011;44936;52.086;5.150;2023-09-18T01:19:46;8.45;;;3.78;;
36725;SDS011;44936;52.086;5.150;2023-09-18T01:22:16;6.82;;;3.13;;
36725;SDS011;44936;52.086;5.150;2023-09-18T01:24:43;7.40;;;3.83;;
36725;SDS011;44936;52.086;5.150;2023-09-18T01:27:11;8.07;;;4.00;;
36725;SDS011;44936;52.086;5.150;2023-09-18T01:29:46;6.85;;;3.30;;
36725;SDS011;44936;52.086;5.150;2023-09-18T01:32:32;7.60;;;3.50;;
36725;SDS011;44936;52.086;5.150;2023-09-18T01:35:02;8.00;;;3.33;;
36725;SDS011;44936;52.086;5.150;2023-09-18T01:37:31;7.85;;;3.50;;
36725;SDS011;44936;52.086;5.150;2023-09-18T01:40:00;7.82;;;3.50;;
36725;SDS011;44936;52.086;5.150;2023-09-18T01:42:31;6.80;;;3.30;;
36725;SDS011;44936;52.086;5.150;2023-09-18T01:44:57;7.80;;;3.53;;
36725;SDS011;44936;52.086;5.150;2023-09-18T01:47:38;6.60;;;3.25;;
36725;SDS011;44936;52.086;5.150;2023-09-18T01:50:04;6.88;;;3.47;;
36725;SDS011;44936;52.086;5.150;2023-09-18T01:52:33;7.93;;;3.88;;
36725;SDS011;44936;52.086;5.150;2023-09-18T01:55:00;7.03;;;3.75;;
36725;SDS011;44936;52.086;5.150;2023-09-18T01:57:25;5.72;;;2.90;;
36725;SDS011;44936;52.086;5.150;2023-09-18T01:59:51;6.65;;;3.17;;
36725;SDS011;44936;52.086;5.150;2023-09-18T02:02:17;9.23;;;3.45;;
36725;SDS011;44936;52.086;5.150;2023-09-18T02:04:42;6.03;;;3.25;;
36725;SDS011;44936;52.086;5.150;2023-09-18T02:07:09;7.45;;;3.58;;
36725;SDS011;44936;52.086;5.150;2023-09-18T02:09:35;8.85;;;3.72;;
36725;SDS011;44936;52.086;5.150;2023-09-18T02:12:00;8.57;;;3.63;;
36725;SDS011;44936;52.086;5.150;2023-09-18T02:14:26;9.40;;;3.95;;
36725;SDS011;44936;52.086;5.150;2023-09-18T02:16:53;6.30;;;3.42;;
36725;SDS011;44936;52.086;5.150;2023-09-18T02:19:19;7.53;;;3.53;;
36725;SDS011;44936;52.086;5.150;2023-09-18T02:21:45;8.35;;;3.78;;
36725;SDS011;44936;52.086;5.150;2023-09-18T02:24:10;7.53;;;3.50;;
36725;SDS011;44936;52.086;5.150;2023-09-18T02:26:36;7.22;;;3.80;;
36725;SDS011;44936;52.086;5.150;2023-09-18T02:29:08;7.50;;;3.45;;
36725;SDS011;44936;52.086;5.150;2023-09-18T02:31:39;5.95;;;3.42;;
36725;SDS011;44936;52.086;5.150;2023-09-18T02:34:06;6.65;;;3.72;;
36725;SDS011;44936;52.086;5.150;2023-09-18T02:36:34;8.43;;;4.15;;
36725;SDS011;44936;52.086;5.150;2023-09-18T02:38:59;9.65;;;3.88;;
36725;SDS011;44936;52.086;5.150;2023-09-18T02:41:25;6.95;;;3.67;;
36725;SDS011;44936;52.086;5.150;2023-09-18T02:43:50;11.55;;;4.38;;
36725;SDS011;44936;52.086;5.150;2023-09-18T02:46:15;9.10;;;3.97;;
36725;SDS011;44936;52.086;5.150;2023-09-18T02:48:41;10.52;;;4.75;;
36725;SDS011;44936;52.086;5.150;2023-09-18T02:51:08;11.65;;;4.28;;
36725;SDS011;44936;52.086;5.150;2023-09-18T02:53:33;12.18;;;4.78;;
36725;SDS011;44936;52.086;5.150;2023-09-18T02:56:00;8.00;;;4.40;;
36725;SDS011;44936;52.086;5.150;2023-09-18T02:58:26;10.27;;;4.53;;
36725;SDS011;44936;52.086;5.150;2023-09-18T03:00:54;10.55;;;4.85;;
36725;SDS011;44936;52.086;5.150;2023-09-18T03:03:20;8.63;;;4.10;;
36725;SDS011;44936;52.086;5.150;2023-09-18T03:05:46;7.22;;;3.70;;
36725;SDS011;44936;52.086;5.150;2023-09-18T03:08:12;9.57;;;4.05;;
36725;SDS011;44936;52.086;5.150;2023-09-18T03:10:39;8.23;;;4.32;;
36725;SDS011;44936;52.086;5.150;2023-09-18T03:13:05;8.23;;;4.05;;
36725;SDS011;44936;52.086;5.150;2023-09-18T03:15:52;10.02;;;4.88;;
36725;SDS011;44936;52.086;5.150;2023-09-18T03:18:17;8.23;;;3.80;;
36725;SDS011;44936;52.086;5.150;2023-09-18T03:20:43;11.60;;;4.38;;
36725;SDS011;44936;52.086;5.150;2023-09-18T03:23:08;8.98;;;3.65;;
36725;SDS011;44936;52.086;5.150;2023-09-18T03:25:35;8.77;;;4.05;;
36725;SDS011;44936;52.086;5.150;2023-09-18T03:28:01;9.90;;;4.18;;
36725;SDS011;44936;52.086;5.150;2023-09-18T03:30:26;5.28;;;3.10;;
36725;SDS011;44936;52.086;5.150;2023-09-18T03:32:52;10.00;;;3.90;;
36725;SDS011;44936;52.086;5.150;2023-09-18T03:35:18;7.63;;;3.53;;
36725;SDS011;44936;52.086;5.150;2023-09-18T03:37:47;7.60;;;3.53;;
36725;SDS011;44936;52.086;5.150;2023-09-18T03:40:16;9.07;;;4.05;;
36725;SDS011;44936;52.086;5.150;2023-09-18T03:42:42;8.63;;;3.72;;
36725;SDS011;44936;52.086;5.150;2023-09-18T03:45:08;8.75;;;4.18;;
36725;SDS011;44936;52.086;5.150;2023-09-18T03:47:34;10.30;;;4.32;;
36725;SDS011;44936;52.086;5.150;2023-09-18T03:50:04;9.95;;;4.70;;
36725;SDS011;44936;52.086;5.150;2023-09-18T03:52:31;10.77;;;4.55;;
36725;SDS011;44936;52.086;5.150;2023-09-18T03:54:56;10.05;;;4.38;;
36725;SDS011;44936;52.086;5.150;2023-09-18T03:57:21;11.52;;;4.50;;
36725;SDS011;44936;52.086;5.150;2023-09-18T03:59:47;9.32;;;4.07;;
36725;SDS011;44936;52.086;5.150;2023-09-18T04:02:12;9.25;;;4.30;;
36725;SDS011;44936;52.086;5.150;2023-09-18T04:04:38;10.02;;;4.10;;
36725;SDS011;44936;52.086;5.150;2023-09-18T04:07:06;7.65;;;3.67;;
36725;SDS011;44936;52.086;5.150;2023-09-18T04:09:32;9.43;;;3.70;;
36725;SDS011;44936;52.086;5.150;2023-09-18T04:12:17;10.07;;;3.90;;
36725;SDS011;44936;52.086;5.150;2023-09-18T04:14:42;7.18;;;3.08;;
36725;SDS011;44936;52.086;5.150;2023-09-18T04:17:08;6.05;;;2.85;;
36725;SDS011;44936;52.086;5.150;2023-09-18T04:19:33;5.03;;;2.88;;
36725;SDS011;44936;52.086;5.150;2023-09-18T04:21:59;5.75;;;2.58;;
36725;SDS011;44936;52.086;5.150;2023-09-18T04:24:27;3.55;;;1.50;;
36725;SDS011;44936;52.086;5.150;2023-09-18T04:26:52;2.97;;;1.85;;
36725;SDS011;44936;52.086;5.150;2023-09-18T04:29:19;3.10;;;1.30;;
36725;SDS011;44936;52.086;5.150;2023-09-18T04:31:44;4.20;;;1.50;;
36725;SDS011;44936;52.086;5.150;2023-09-18T04:34:10;1.90;;;1.42;;
36725;SDS011;44936;52.086;5.150;2023-09-18T04:36:36;8.05;;;1.83;;
36725;SDS011;44936;52.086;5.150;2023-09-18T04:39:02;3.08;;;1.52;;
36725;SDS011;44936;52.086;5.150;2023-09-18T04:41:29;3.20;;;1.73;;
36725;SDS011;44936;52.086;5.150;2023-09-18T04:43:55;3.22;;;1.65;;
36725;SDS011;44936;52.086;5.150;2023-09-18T04:46:22;3.08;;;1.70;;
36725;SDS011;44936;52.086;5.150;2023-09-18T04:48:48;3.33;;;1.85;;
36725;SDS011;44936;52.086;5.150;2023-09-18T04:51:14;3.33;;;1.90;;
36725;SDS011;44936;52.086;5.150;2023-09-18T04:53:39;3.83;;;2.03;;
36725;SDS011;44936;52.086;5.150;2023-09-18T04:56:06;3.80;;;1.98;;
36725;SDS011;44936;52.086;5.150;2023-09-18T04:58:31;5.38;;;2.25;;
36725;SDS011;44936;52.086;5.150;2023-09-18T05:00:57;3.70;;;2.10;;
36725;SDS011;44936;52.086;5.150;2023-09-18T05:03:24;3.03;;;1.73;;
36725;SDS011;44936;52.086;5.150;2023-09-18T05:05:51;6.28;;;2.40;;
36725;SDS011;44936;52.086;5.150;2023-09-18T05:08:17;2.58;;;1.80;;
36725;SDS011;44936;52.086;5.150;2023-09-18T05:10:42;3.22;;;1.60;;
36725;SDS011;44936;52.086;5.150;2023-09-18T05:13:08;2.40;;;1.50;;
36725;SDS011;44936;52.086;5.150;2023-09-18T05:15:34;2.58;;;1.58;;
36725;SDS011;44936;52.086;5.150;2023-09-18T05:18:00;3.55;;;1.90;;
36725;SDS011;44936;52.086;5.150;2023-09-18T05:20:29;4.25;;;1.92;;
36725;SDS011;44936;52.086;5.150;2023-09-18T05:22:56;2.47;;;1.75;;
36725;SDS011;44936;52.086;5.150;2023-09-18T05:25:23;2.50;;;1.70;;
36725;SDS011;44936;52.086;5.150;2023-09-18T05:27:56;2.33;;;1.40;;
36725;SDS011;44936;52.086;5.150;2023-09-18T05:30:26;3.05;;;1.50;;
36725;SDS011;44936;52.086;5.150;2023-09-18T05:32:57;3.17;;;1.52;;
36725;SDS011;44936;52.086;5.150;2023-09-18T05:35:29;5.65;;;2.25;;
36725;SDS011;44936;52.086;5.150;2023-09-18T05:37:55;2.97;;;1.80;;
36725;SDS011;44936;52.086;5.150;2023-09-18T05:40:22;5.72;;;2.13;;
36725;SDS011;44936;52.086;5.150;2023-09-18T05:42:47;3.95;;;1.70;;
36725;SDS011;44936;52.086;5.150;2023-09-18T05:45:13;5.57;;;1.83;;
36725;SDS011;44936;52.086;5.150;2023-09-18T05:47:39;2.70;;;1.80;;
36725;SDS011;44936;52.086;5.150;2023-09-18T05:50:06;2.35;;;1.75;;
36725;SDS011;44936;52.086;5.150;2023-09-18T05:52:39;4.38;;;2.28;;
36725;SDS011;44936;52.086;5.150;2023-09-18T05:55:05;3.17;;;1.90;;
36725;SDS011;44936;52.086;5.150;2023-09-18T05:57:32;3.28;;;1.92;;
36725;SDS011;44936;52.086;5.150;2023-09-18T05:59:57;4.72;;;2.00;;
36725;SDS011;44936;52.086;5.150;2023-09-18T06:02:23;2.88;;;1.65;;
36725;SDS011;44936;52.086;5.150;2023-09-18T06:04:50;6.88;;;2.35;;
36725;SDS011;44936;52.086;5.150;2023-09-18T06:07:20;3.58;;;1.90;;
36725;SDS011;44936;52.086;5.150;2023-09-18T06:10:07;5.50;;;2.05;;
36725;SDS011;44936;52.086;5.150;2023-09-18T06:12:33;3.05;;;1.80;;
36725;SDS011;44936;52.086;5.150;2023-09-18T06:14:58;5.28;;;1.70;;
36725;SDS011;44936;52.086;5.150;2023-09-18T06:17:24;4.78;;;2.13;;
36725;SDS011;44936;52.086;5.150;2023-09-18T06:19:49;2.95;;;1.70;;
36725;SDS011;44936;52.086;5.150;2023-09-18T06:22:15;3.83;;;1.65;;
36725;SDS011;44936;52.086;5.150;2023-09-18T06:24:40;4.50;;;2.20;;
36725;SDS011;44936;52.086;5.150;2023-09-18T06:27:06;4.15;;;1.70;;
36725;SDS011;44936;52.086;5.150;2023-09-18T06:29:34;4.07;;;1.65;;
36725;SDS011;44936;52.086;5.150;2023-09-18T06:32:00;2.95;;;1.73;;
36725;SDS011;44936;52.086;5.150;2023-09-18T06:34:26;4.88;;;1.70;;
36725;SDS011;44936;52.086;5.150;2023-09-18T06:36:53;3.53;;;2.03;;
36725;SDS011;44936;52.086;5.150;2023-09-18T06:39:18;4.97;;;1.80;;
36725;SDS011;44936;52.086;5.150;2023-09-18T06:41:45;3.45;;;1.80;;
36725;SDS011;44936;52.086;5.150;2023-09-18T06:44:12;2.22;;;1.27;;
36725;SDS011;44936;52.086;5.150;2023-09-18T06:46:40;3.35;;;1.58;;
36725;SDS011;44936;52.086;5.150;2023-09-18T06:49:05;3.42;;;1.67;;
36725;SDS011;44936;52.086;5.150;2023-09-18T06:51:31;2.40;;;1.48;;
36725;SDS011;44936;52.086;5.150;2023-09-18T06:53:57;2.33;;;1.40;;
36725;SDS011;44936;52.086;5.150;2023-09-18T06:56:25;2.70;;;1.63;;
36725;SDS011;44936;52.086;5.150;2023-09-18T06:58:51;2.60;;;1.60;;
36725;SDS011;44936;52.086;5.150;2023-09-18T07:01:19;2.95;;;1.67;;
36725;SDS011;44936;52.086;5.150;2023-09-18T07:03:46;4.57;;;2.40;;
36725;SDS011;44936;52.086;5.150;2023-09-18T07:06:15;2.92;;;1.83;;
36725;SDS011;44936;52.086;5.150;2023-09-18T07:08:47;3.58;;;1.80;;
36725;SDS011;44936;52.086;5.150;2023-09-18T07:11:16;3.40;;;2.08;;
36725;SDS011;44936;52.086;5.150;2023-09-18T07:13:42;2.33;;;1.20;;
36725;SDS011;44936;52.086;5.150;2023-09-18T07:16:08;5.90;;;1.77;;
36725;SDS011;44936;52.086;5.150;2023-09-18T07:18:34;3.22;;;1.80;;
36725;SDS011;44936;52.086;5.150;2023-09-18T07:21:00;4.22;;;1.60;;
36725;SDS011;44936;52.086;5.150;2023-09-18T07:23:26;3.63;;;1.60;;
36725;SDS011;44936;52.086;5.150;2023-09-18T07:25:51;3.88;;;1.83;;
36725;SDS011;44936;52.086;5.150;2023-09-18T07:28:17;2.20;;;1.80;;
36725;SDS011;44936;52.086;5.150;2023-09-18T07:30:43;4.88;;;1.70;;
36725;SDS011;44936;52.086;5.150;2023-09-18T07:33:09;3.17;;;1.92;;
36725;SDS011;44936;52.086;5.150;2023-09-18T07:35:35;3.53;;;1.60;;
36725;SDS011;44936;52.086;5.150;2023-09-18T07:38:00;4.13;;;2.25;;
36725;SDS011;44936;52.086;5.150;2023-09-18T07:40:26;4.13;;;2.13;;
36725;SDS011;44936;52.086;5.150;2023-09-18T07:42:51;3.33;;;2.10;;
36725;SDS011;44936;52.086;5.150;2023-09-18T07:45:19;2.50;;;1.52;;
36725;SDS011;44936;52.086;5.150;2023-09-18T07:47:44;3.00;;;1.85;;
36725;SDS011;44936;52.086;5.150;2023-09-18T07:50:09;3.50;;;1.67;;
36725;SDS011;44936;52.086;5.150;2023-09-18T07:52:35;4.00;;;2.00;;
36725;SDS011;44936;52.086;5.150;2023-09-18T07:55:01;6.47;;;2.40;;
36725;SDS011;44936;52.086;5.150;2023-09-18T07:57:27;3.40;;;1.80;;
36725;SDS011;44936;52.086;5.150;2023-09-18T07:59:57;3.55;;;1.98;;
36725;SDS011;44936;52.086;5.150;2023-09-18T08:02:24;2.83;;;1.88;;
36725;SDS011;44936;52.086;5.150;2023-09-18T08:04:50;2.97;;;1.80;;
36725;SDS011;44936;52.086;5.150;2023-09-18T08:07:17;3.08;;;1.67;;
36725;SDS011;44936;52.086;5.150;2023-09-18T08:09:44;3.83;;;1.75;;
36725;SDS011;44936;52.086;5.150;2023-09-18T08:12:09;3.03;;;1.90;;
36725;SDS011;44936;52.086;5.150;2023-09-18T08:14:34;3.72;;;1.83;;
36725;SDS011;44936;52.086;5.150;2023-09-18T08:17:01;4.15;;;1.90;;
36725;SDS011;44936;52.086;5.150;2023-09-18T08:19:28;2.95;;;1.92;;
36725;SDS011;44936;52.086;5.150;2023-09-18T08:21:53;2.70;;;1.77;;
36725;SDS011;44936;52.086;5.150;2023-09-18T08:24:19;3.63;;;2.00;;
36725;SDS011;44936;52.086;5.150;2023-09-18T08:26:46;5.30;;;2.17;;
36725;SDS011;44936;52.086;5.150;2023-09-18T08:29:11;4.35;;;2.10;;
36725;SDS011;44936;52.086;5.150;2023-09-18T08:31:36;2.55;;;1.70;;
36725;SDS011;44936;52.086;5.150;2023-09-18T08:34:02;4.13;;;1.60;;
36725;SDS011;44936;52.086;5.150;2023-09-18T08:36:27;2.70;;;1.52;;
36725;SDS011;44936;52.086;5.150;2023-09-18T08:38:55;4.07;;;1.92;;
36725;SDS011;44936;52.086;5.150;2023-09-18T08:41:21;3.10;;;1.63;;
36725;SDS011;44936;52.086;5.150;2023-09-18T08:43:51;4.28;;;1.77;;
36725;SDS011;44936;52.086;5.150;2023-09-18T08:46:22;3.28;;;1.67;;
36725;SDS011;44936;52.086;5.150;2023-09-18T08:48:47;3.00;;;1.50;;
36725;SDS011;44936;52.086;5.150;2023-09-18T08:51:15;3.42;;;2.03;;
36725;SDS011;44936;52.086;5.150;2023-09-18T08:53:41;3.35;;;1.90;;
36725;SDS011;44936;52.086;5.150;2023-09-18T08:56:08;3.08;;;1.63;;
36725;SDS011;44936;52.086;5.150;2023-09-18T08:58:35;2.95;;;1.70;;
36725;SDS011;44936;52.086;5.150;2023-09-18T09:01:05;3.58;;;2.00;;
36725;SDS011;44936;52.086;5.150;2023-09-18T09:03:34;2.72;;;1.60;;
36725;SDS011;44936;52.086;5.150;2023-09-18T09:06:01;2.63;;;1.60;;
36725;SDS011;44936;52.086;5.150;2023-09-18T09:08:30;1.67;;;1.27;;
36725;SDS011;44936;52.086;5.150;2023-09-18T09:10:56;2.33;;;1.65;;
36725;SDS011;44936;52.086;5.150;2023-09-18T09:13:25;2.65;;;1.70;;
36725;SDS011;44936;52.086;5.150;2023-09-18T09:15:55;2.83;;;2.08;;
36725;SDS011;44936;52.086;5.150;2023-09-18T09:18:22;3.55;;;1.63;;
36725;SDS011;44936;52.086;5.150;2023-09-18T09:20:52;2.38;;;1.70;;
36725;SDS011;44936;52.086;5.150;2023-09-18T09:23:18;3.17;;;2.00;;
36725;SDS011;44936;52.086;5.150;2023-09-18T09:25:44;2.58;;;1.90;;
36725;SDS011;44936;52.086;5.150;2023-09-18T09:28:09;3.00;;;2.00;;
36725;SDS011;44936;52.086;5.150;2023-09-18T09:30:35;2.80;;;1.75;;
36725;SDS011;44936;52.086;5.150;2023-09-18T09:33:02;3.13;;;2.08;;
36725;SDS011;44936;52.086;5.150;2023-09-18T09:35:33;4.63;;;2.20;;
36725;SDS011;44936;52.086;5.150;2023-09-18T09:38:11;3.03;;;1.98;;
36725;SDS011;44936;52.086;5.150;2023-09-18T09:40:40;3.30;;;2.45;;
36725;SDS011;44936;52.086;5.150;2023-09-18T09:43:08;3.53;;;2.50;;
36725;SDS011;44936;52.086;5.150;2023-09-18T09:45:35;3.42;;;2.70;;
36725;SDS011;44936;52.086;5.150;2023-09-18T09:48:02;3.55;;;2.40;;
36725;SDS011;44936;52.086;5.150;2023-09-18T09:50:29;7.13;;;3.17;;
36725;SDS011;44936;52.086;5.150;2023-09-18T09:52:55;4.00;;;2.90;;
36725;SDS011;44936;52.086;5.150;2023-09-18T09:57:58;4.97;;;3.15;;
36725;SDS011;44936;52.086;5.150;2023-09-18T10:00:32;4.80;;;3.22;;
36725;SDS011;44936;52.086;5.150;2023-09-18T10:03:10;4.70;;;2.72;;
36725;SDS011;44936;52.086;5.150;2023-09-18T10:05:38;4.85;;;3.25;;
36725;SDS011;44936;52.086;5.150;2023-09-18T10:08:07;3.40;;;2.60;;
36725;SDS011;44936;52.086;5.150;2023-09-18T10:10:43;3.28;;;2.83;;
36725;SDS011;44936;52.086;5.150;2023-09-18T10:13:15;4.75;;;2.40;;
36725;SDS011;44936;52.086;5.150;2023-09-18T10:15:44;3.78;;;2.67;;
36725;SDS011;44936;52.086;5.150;2023-09-18T10:18:21;5.22;;;2.65;;
36725;SDS011;44936;52.086;5.150;2023-09-18T10:20:52;3.97;;;2.42;;
36725;SDS011;44936;52.086;5.150;2023-09-18T10:23:29;2.90;;;1.98;;
36725;SDS011;44936;52.086;5.150;2023-09-18T10:26:04;4.38;;;2.20;;
36725;SDS011;44936;52.086;5.150;2023-09-18T10:28:30;2.90;;;2.22;;
36725;SDS011;44936;52.086;5.150;2023-09-18T10:30:57;3.38;;;2.30;;
36725;SDS011;44936;52.086;5.150;2023-09-18T10:33:25;5.32;;;2.13;;
36725;SDS011;44936;52.086;5.150;2023-09-18T10:35:51;2.60;;;1.95;;
36725;SDS011;44936;52.086;5.150;2023-09-18T10:38:18;3.35;;;1.88;;
36725;SDS011;44936;52.086;5.150;2023-09-18T10:40:46;2.40;;;1.95;;
36725;SDS011;44936;52.086;5.150;2023-09-18T10:43:12;3.38;;;2.00;;
36725;SDS011;44936;52.086;5.150;2023-09-18T10:45:41;3.22;;;2.30;;
36725;SDS011;44936;52.086;5.150;2023-09-18T10:48:09;3.92;;;2.15;;
36725;SDS011;44936;52.086;5.150;2023-09-18T10:50:35;3.85;;;1.98;;
36725;SDS011;44936;52.086;5.150;2023-09-18T10:53:01;3.83;;;2.05;;
36725;SDS011;44936;52.086;5.150;2023-09-18T10:55:27;6.97;;;2.53;;
36725;SDS011;44936;52.086;5.150;2023-09-18T10:57:53;3.13;;;2.30;;
36725;SDS011;44936;52.086;5.150;2023-09-18T11:00:28;4.57;;;2.20;;
36725;SDS011;44936;52.086;5.150;2023-09-18T11:03:13;3.72;;;2.47;;
36725;SDS011;44936;52.086;5.150;2023-09-18T11:05:43;4.32;;;2.25;;
36725;SDS011;44936;52.086;5.150;2023-09-18T11:08:30;3.40;;;2.20;;
36725;SDS011;44936;52.086;5.150;2023-09-18T11:13:35;7.45;;;2.47;;
36725;SDS011;44936;52.086;5.150;2023-09-18T11:19:16;2.78;;;2.05;;
36725;SDS011;44936;52.086;5.150;2023-09-18T11:21:41;7.00;;;2.90;;
36725;SDS011;44936;52.086;5.150;2023-09-18T11:24:14;3.22;;;1.95;;
36725;SDS011;44936;52.086;5.150;2023-09-18T11:26:42;3.63;;;2.20;;
36725;SDS011;44936;52.086;5.150;2023-09-18T11:29:12;3.63;;;2.10;;
36725;SDS011;44936;52.086;5.150;2023-09-18T11:34:11;4.65;;;2.58;;
36725;SDS011;44936;52.086;5.150;2023-09-18T11:36:37;3.35;;;2.00;;
36725;SDS011;44936;52.086;5.150;2023-09-18T11:39:02;3.22;;;1.85;;
36725;SDS011;44936;52.086;5.150;2023-09-18T11:41:29;3.00;;;1.83;;
36725;SDS011;44936;52.086;5.150;2023-09-18T11:46:47;3.03;;;1.88;;
36725;SDS011;44936;52.086;5.150;2023-09-18T11:49:20;1.70;;;1.50;;
36725;SDS011;44936;52.086;5.150;2023-09-18T11:51:53;3.58;;;2.15;;
36725;SDS011;44936;52.086;5.150;2023-09-18T11:54:19;2.70;;;1.80;;
36725;SDS011;44936;52.086;5.150;2023-09-18T11:56:46;2.45;;;1.83;;
36725;SDS011;44936;52.086;5.150;2023-09-18T11:59:11;5.00;;;1.98;;
36725;SDS011;44936;52.086;5.150;2023-09-18T12:01:38;2.00;;;1.67;;
36725;SDS011;44936;52.086;5.150;2023-09-18T12:04:06;3.90;;;1.60;;
36725;SDS011;44936;52.086;5.150;2023-09-18T12:06:38;4.95;;;2.10;;
36725;SDS011;44936;52.086;5.150;2023-09-18T12:09:06;3.42;;;2.10;;
36725;SDS011;44936;52.086;5.150;2023-09-18T12:11:32;4.35;;;2.10;;
36725;SDS011;44936;52.086;5.150;2023-09-18T12:14:00;14.55;;;2.35;;
36725;SDS011;44936;52.086;5.150;2023-09-18T12:16:27;3.33;;;2.45;;
36725;SDS011;44936;52.086;5.150;2023-09-18T12:18:53;4.47;;;2.55;;
36725;SDS011;44936;52.086;5.150;2023-09-18T12:21:18;2.95;;;2.00;;
36725;SDS011;44936;52.086;5.150;2023-09-18T12:23:44;3.08;;;2.20;;
36725;SDS011;44936;52.086;5.150;2023-09-18T12:26:15;4.72;;;1.85;;
36725;SDS011;44936;52.086;5.150;2023-09-18T12:28:43;2.58;;;1.98;;
36725;SDS011;44936;52.086;5.150;2023-09-18T12:31:12;3.28;;;2.13;;
36725;SDS011;44936;52.086;5.150;2023-09-18T12:33:39;3.10;;;1.80;;
36725;SDS011;44936;52.086;5.150;2023-09-18T12:36:06;3.40;;;2.17;;
36725;SDS011;44936;52.086;5.150;2023-09-18T12:38:55;2.80;;;1.70;;
36725;SDS011;44936;52.086;5.150;2023-09-18T12:41:23;3.50;;;1.80;;
36725;SDS011;44936;52.086;5.150;2023-09-18T12:43:50;2.38;;;1.80;;
36725;SDS011;44936;52.086;5.150;2023-09-18T12:46:15;1.90;;;1.70;;
36725;SDS011;44936;52.086;5.150;2023-09-18T12:48:44;3.15;;;1.52;;
36725;SDS011;44936;52.086;5.150;2023-09-18T12:51:12;5.82;;;1.73;;
36725;SDS011;44936;52.086;5.150;2023-09-18T12:53:39;3.13;;;2.00;;
36725;SDS011;44936;52.086;5.150;2023-09-18T12:56:08;2.00;;;1.75;;
36725;SDS011;44936;52.086;5.150;2023-09-18T12:58:35;5.30;;;1.90;;
36725;SDS011;44936;52.086;5.150;2023-09-18T13:01:05;4.30;;;2.22;;
36725;SDS011;44936;52.086;5.150;2023-09-18T13:03:46;3.13;;;2.17;;
36725;SDS011;44936;52.086;5.150;2023-09-18T13:06:18;3.00;;;1.98;;
36725;SDS011;44936;52.086;5.150;2023-09-18T13:08:44;4.97;;;2.50;;
36725;SDS011;44936;52.086;5.150;2023-09-18T13:11:12;4.75;;;2.05;;
36725;SDS011;44936;52.086;5.150;2023-09-18T13:13:39;5.32;;;2.55;;
36725;SDS011;44936;52.086;5.150;2023-09-18T13:16:06;2.85;;;2.10;;
36725;SDS011;44936;52.086;5.150;2023-09-18T13:18:36;3.22;;;2.40;;
36725;SDS011;44936;52.086;5.150;2023-09-18T13:21:11;3.53;;;2.60;;
36725;SDS011;44936;52.086;5.150;2023-09-18T13:23:37;3.47;;;2.42;;
36725;SDS011;44936;52.086;5.150;2023-09-18T13:26:05;3.83;;;2.50;;
36725;SDS011;44936;52.086;5.150;2023-09-18T13:28:32;3.05;;;2.42;;
36725;SDS011;44936;52.086;5.150;2023-09-18T13:31:00;2.72;;;2.45;;
36725;SDS011;44936;52.086;5.150;2023-09-18T13:33:30;4.03;;;2.70;;
36725;SDS011;44936;52.086;5.150;2023-09-18T13:35:56;3.78;;;2.00;;
36725;SDS011;44936;52.086;5.150;2023-09-18T13:38:21;2.92;;;1.98;;
36725;SDS011;44936;52.086;5.150;2023-09-18T13:40:47;3.20;;;2.30;;
36725;SDS011;44936;52.086;5.150;2023-09-18T13:43:13;3.40;;;2.10;;
36725;SDS011;44936;52.086;5.150;2023-09-18T13:45:41;3.08;;;2.00;;
36725;SDS011;44936;52.086;5.150;2023-09-18T13:48:07;3.13;;;2.20;;
36725;SDS011;44936;52.086;5.150;2023-09-18T13:50:33;2.38;;;2.05;;
36725;SDS011;44936;52.086;5.150;2023-09-18T13:53:00;4.85;;;2.00;;
36725;SDS011;44936;52.086;5.150;2023-09-18T13:55:26;6.80;;;2.20;;
36725;SDS011;44936;52.086;5.150;2023-09-18T13:57:52;3.00;;;1.90;;
36725;SDS011;44936;52.086;5.150;2023-09-18T14:00:17;2.97;;;2.00;;
36725;SDS011;44936;52.086;5.150;2023-09-18T14:02:42;2.35;;;1.60;;
36725;SDS011;44936;52.086;5.150;2023-09-18T14:05:09;2.67;;;1.40;;
36725;SDS011;44936;52.086;5.150;2023-09-18T14:07:35;1.27;;;1.10;;
36725;SDS011;44936;52.086;5.150;2023-09-18T14:10:05;2.25;;;1.40;;
36725;SDS011;44936;52.086;5.150;2023-09-18T14:12:32;2.05;;;1.30;;
36725;SDS011;44936;52.086;5.150;2023-09-18T14:14:57;2.08;;;1.17;;
36725;SDS011;44936;52.086;5.150;2023-09-18T14:17:23;1.48;;;1.17;;
36725;SDS011;44936;52.086;5.150;2023-09-18T14:19:48;1.83;;;1.20;;
36725;SDS011;44936;52.086;5.150;2023-09-18T14:22:14;1.88;;;1.50;;
36725;SDS011;44936;52.086;5.150;2023-09-18T14:24:40;2.42;;;1.10;;
36725;SDS011;44936;52.086;5.150;2023-09-18T14:27:05;1.52;;;1.00;;
36725;SDS011;44936;52.086;5.150;2023-09-18T14:29:32;3.08;;;1.25;;
36725;SDS011;44936;52.086;5.150;2023-09-18T14:31:58;2.22;;;0.90;;
36725;SDS011;44936;52.086;5.150;2023-09-18T14:34:24;4.18;;;1.35;;
36725;SDS011;44936;52.086;5.150;2023-09-18T14:36:50;0.93;;;0.88;;
36725;SDS011;44936;52.086;5.150;2023-09-18T14:39:15;1.05;;;0.93;;
36725;SDS011;44936;52.086;5.150;2023-09-18T14:41:41;2.72;;;0.90;;
36725;SDS011;44936;52.086;5.150;2023-09-18T14:44:07;1.08;;;0.85;;
36725;SDS011;44936;52.086;5.150;2023-09-18T14:46:36;1.17;;;1.02;;
36725;SDS011;44936;52.086;5.150;2023-09-18T14:49:06;1.42;;;1.33;;
36725;SDS011;44936;52.086;5.150;2023-09-18T14:51:34;2.90;;;1.20;;
36725;SDS011;44936;52.086;5.150;2023-09-18T14:54:00;2.65;;;1.00;;
36725;SDS011;44936;52.086;5.150;2023-09-18T14:56:27;3.13;;;1.15;;
36725;SDS011;44936;52.086;5.150;2023-09-18T14:58:52;3.20;;;1.13;;
36725;SDS011;44936;52.086;5.150;2023-09-18T15:01:20;6.93;;;1.50;;
36725;SDS011;44936;52.086;5.150;2023-09-18T15:03:46;3.20;;;1.30;;
36725;SDS011;44936;52.086;5.150;2023-09-18T15:06:11;4.07;;;0.95;;